sensor_id;sensor_type;location;lat;lon;timestamp;P1;durP1;ratioP1;P2;durP2;ratioP2
47129;SDS011;69689;48.122;11.542;2024-03-17T06:02:51;5.38;;;3.10;;
47129;SDS011;69689;48.122;11.542;2024-03-17T06:05:16;4.45;;;2.75;;
47129;SDS011;69689;48.122;11.542;2024-03-17T06:07:41;5.47;;;3.42;;
47129;SDS011;69689;48.122;11.542;2024-03-17T06:10:07;5.05;;;3.38;;
47129;SDS011;69689;48.122;11.542;2024-03-17T06:12:33;4.45;;;3.10;;
47129;SDS011;69689;48.122;11.542;2024-03-17T06:14:58;5.88;;;3.08;;
47129;SDS011;69689;48.122;11.542;2024-03-17T06:17:24;6.53;;;2.75;;
47129;SDS011;69689;48.122;11.542;2024-03-17T06:19:51;6.47;;;3.33;;
47129;SDS011;69689;48.122;11.542;2024-03-17T06:22:16;4.78;;;3.40;;
47129;SDS011;69689;48.122;11.542;2024-03-17T06:24:42;5.20;;;3.40;;
47129;SDS011;69689;48.122;11.542;2024-03-17T06:27:07;6.20;;;3.22;;
47129;SDS011;69689;48.122;11.542;2024-03-17T06:29:32;6.90;;;3.55;;
47129;SDS011;69689;48.122;11.542;2024-03-17T06:31:58;6.22;;;3.40;;
47129;SDS011;69689;48.122;11.542;2024-03-17T06:34:23;5.00;;;2.80;;
47129;SDS011;69689;48.122;11.542;2024-03-17T06:36:48;6.20;;;3.13;;
47129;SDS011;69689;48.122;11.542;2024-03-17T06:39:14;5.45;;;3.25;;
47129;SDS011;69689;48.122;11.542;2024-03-17T06:41:41;3.85;;;2.70;;
47129;SDS011;69689;48.122;11.542;2024-03-17T06:44:06;5.38;;;3.00;;
47129;SDS011;69689;48.122;11.542;2024-03-17T06:46:32;6.07;;;3.17;;
47129;SDS011;69689;48.122;11.542;2024-03-17T06:48:57;4.03;;;2.88;;
47129;SDS011;69689;48.122;11.542;2024-03-17T06:51:24;5.28;;;2.70;;
47129;SDS011;69689;48.122;11.542;2024-03-17T06:53:50;6.40;;;2.45;;
47129;SDS011;69689;48.122;11.542;2024-03-17T06:56:15;4.47;;;2.80;;
47129;SDS011;69689;48.122;11.542;2024-03-17T06:58:40;4.95;;;3.10;;
47129;SDS011;69689;48.122;11.542;2024-03-17T07:01:06;6.07;;;3.08;;
47129;SDS011;69689;48.122;11.542;2024-03-17T07:03:32;5.00;;;3.13;;
47129;SDS011;69689;48.122;11.542;2024-03-17T07:05:58;4.25;;;2.83;;
47129;SDS011;69689;48.122;11.542;2024-03-17T07:08:27;5.40;;;3.35;;
47129;SDS011;69689;48.122;11.542;2024-03-17T07:10:56;5.30;;;3.00;;
47129;SDS011;69689;48.122;11.542;2024-03-17T07:13:22;4.10;;;2.85;;
47129;SDS011;69689;48.122;11.542;2024-03-17T07:15:47;5.22;;;2.65;;
47129;SDS011;69689;48.122;11.542;2024-03-17T07:18:12;5.95;;;2.85;;
47129;SDS011;69689;48.122;11.542;2024-03-17T07:20:38;4.95;;;3.10;;
47129;SDS011;69689;48.122;11.542;2024-03-17T07:23:04;4.45;;;2.20;;
47129;SDS011;69689;48.122;11.542;2024-03-17T07:25:29;5.60;;;2.95;;
47129;SDS011;69689;48.122;11.542;2024-03-17T07:27:55;5.72;;;2.60;;
47129;SDS011;69689;48.122;11.542;2024-03-17T07:30:20;4.90;;;2.47;;
47129;SDS011;69689;48.122;11.542;2024-03-17T07:32:46;5.05;;;2.50;;
47129;SDS011;69689;48.122;11.542;2024-03-17T07:35:11;5.03;;;2.47;;
47129;SDS011;69689;48.122;11.542;2024-03-17T07:37:37;4.25;;;2.65;;
47129;SDS011;69689;48.122;11.542;2024-03-17T07:40:04;3.63;;;2.28;;
47129;SDS011;69689;48.122;11.542;2024-03-17T07:42:31;3.47;;;2.55;;
47129;SDS011;69689;48.122;11.542;2024-03-17T07:44:57;3.38;;;2.05;;
47129;SDS011;69689;48.122;11.542;2024-03-17T07:47:22;5.28;;;2.35;;
47129;SDS011;69689;48.122;11.542;2024-03-17T07:49:48;3.28;;;2.05;;
47129;SDS011;69689;48.122;11.542;2024-03-17T07:52:13;2.70;;;1.60;;
47129;SDS011;69689;48.122;11.542;2024-03-17T07:54:38;3.63;;;2.10;;
47129;SDS011;69689;48.122;11.542;2024-03-17T07:57:03;2.30;;;1.58;;
47129;SDS011;69689;48.122;11.542;2024-03-17T07:59:29;2.60;;;1.77;;
47129;SDS011;69689;48.122;11.542;2024-03-17T08:01:55;2.85;;;1.75;;
47129;SDS011;69689;48.122;11.542;2024-03-17T08:04:21;3.97;;;1.55;;
47129;SDS011;69689;48.122;11.542;2024-03-17T08:06:47;2.42;;;1.70;;
47129;SDS011;69689;48.122;11.542;2024-03-17T08:09:12;2.17;;;1.55;;
47129;SDS011;69689;48.122;11.542;2024-03-17T08:11:37;3.28;;;2.03;;
47129;SDS011;69689;48.122;11.542;2024-03-17T08:14:03;2.65;;;1.63;;
47129;SDS011;69689;48.122;11.542;2024-03-17T08:16:30;2.88;;;1.88;;
47129;SDS011;69689;48.122;11.542;2024-03-17T08:18:56;2.95;;;2.13;;
47129;SDS011;69689;48.122;11.542;2024-03-17T08:21:22;2.03;;;1.38;;
47129;SDS011;69689;48.122;11.542;2024-03-17T08:23:48;3.25;;;1.85;;
47129;SDS011;69689;48.122;11.542;2024-03-17T08:26:13;3.67;;;1.80;;
47129;SDS011;69689;48.122;11.542;2024-03-17T08:28:38;3.08;;;2.03;;
47129;SDS011;69689;48.122;11.542;2024-03-17T08:31:04;2.33;;;1.30;;
47129;SDS011;69689;48.122;11.542;2024-03-17T08:33:29;1.63;;;1.50;;
47129;SDS011;69689;48.122;11.542;2024-03-17T08:35:56;2.35;;;1.77;;
47129;SDS011;69689;48.122;11.542;2024-03-17T08:38:29;2.67;;;1.50;;
47129;SDS011;69689;48.122;11.542;2024-03-17T08:40:56;3.83;;;1.70;;
47129;SDS011;69689;48.122;11.542;2024-03-17T08:43:22;2.20;;;1.75;;
47129;SDS011;69689;48.122;11.542;2024-03-17T08:46:03;2.78;;;1.65;;
47129;SDS011;69689;48.122;11.542;2024-03-17T08:48:31;2.83;;;1.63;;
47129;SDS011;69689;48.122;11.542;2024-03-17T08:50:57;2.13;;;1.38;;
47129;SDS011;69689;48.122;11.542;2024-03-17T08:53:24;2.95;;;1.70;;
47129;SDS011;69689;48.122;11.542;2024-03-17T08:55:49;2.42;;;1.73;;
47129;SDS011;69689;48.122;11.542;2024-03-17T08:58:15;3.13;;;1.60;;
47129;SDS011;69689;48.122;11.542;2024-03-17T09:00:41;3.42;;;1.15;;
47129;SDS011;69689;48.122;11.542;2024-03-17T09:03:09;2.00;;;1.30;;
47129;SDS011;69689;48.122;11.542;2024-03-17T09:05:36;2.65;;;1.60;;
47129;SDS011;69689;48.122;11.542;2024-03-17T09:08:01;3.58;;;2.00;;
47129;SDS011;69689;48.122;11.542;2024-03-17T09:10:27;1.98;;;1.52;;
47129;SDS011;69689;48.122;11.542;2024-03-17T09:12:52;2.75;;;1.58;;
47129;SDS011;69689;48.122;11.542;2024-03-17T09:15:18;2.25;;;1.10;;
47129;SDS011;69689;48.122;11.542;2024-03-17T09:17:43;1.75;;;1.08;;
47129;SDS011;69689;48.122;11.542;2024-03-17T09:20:09;2.22;;;1.13;;
47129;SDS011;69689;48.122;11.542;2024-03-17T09:22:39;3.17;;;1.23;;
47129;SDS011;69689;48.122;11.542;2024-03-17T09:25:06;2.63;;;1.00;;
47129;SDS011;69689;48.122;11.542;2024-03-17T09:27:32;3.03;;;1.60;;
47129;SDS011;69689;48.122;11.542;2024-03-17T09:29:59;2.42;;;1.42;;
47129;SDS011;69689;48.122;11.542;2024-03-17T09:32:24;1.70;;;1.50;;
47129;SDS011;69689;48.122;11.542;2024-03-17T09:34:50;2.22;;;1.50;;
47129;SDS011;69689;48.122;11.542;2024-03-17T09:37:15;3.42;;;1.27;;
47129;SDS011;69689;48.122;11.542;2024-03-17T09:39:41;1.77;;;1.30;;
47129;SDS011;69689;48.122;11.542;2024-03-17T09:42:10;3.03;;;1.80;;
47129;SDS011;69689;48.122;11.542;2024-03-17T09:44:41;1.60;;;1.20;;
47129;SDS011;69689;48.122;11.542;2024-03-17T09:47:08;2.65;;;1.30;;
47129;SDS011;69689;48.122;11.542;2024-03-17T09:49:41;2.03;;;1.10;;
47129;SDS011;69689;48.122;11.542;2024-03-17T09:52:07;2.97;;;1.30;;
47129;SDS011;69689;48.122;11.542;2024-03-17T09:54:50;4.57;;;1.63;;
47129;SDS011;69689;48.122;11.542;2024-03-17T09:57:19;2.15;;;1.40;;
47129;SDS011;69689;48.122;11.542;2024-03-17T09:59:50;2.40;;;1.27;;
47129;SDS011;69689;48.122;11.542;2024-03-17T10:02:19;1.38;;;1.00;;
47129;SDS011;69689;48.122;11.542;2024-03-17T10:04:45;2.70;;;1.27;;
47129;SDS011;69689;48.122;11.542;2024-03-17T10:07:10;1.30;;;1.05;;
47129;SDS011;69689;48.122;11.542;2024-03-17T10:09:36;1.55;;;0.88;;
47129;SDS011;69689;48.122;11.542;2024-03-17T10:12:02;2.08;;;0.93;;
47129;SDS011;69689;48.122;11.542;2024-03-17T10:14:27;2.45;;;1.15;;
47129;SDS011;69689;48.122;11.542;2024-03-17T10:16:53;1.92;;;0.98;;
47129;SDS011;69689;48.122;11.542;2024-03-17T10:19:22;2.75;;;1.15;;
47129;SDS011;69689;48.122;11.542;2024-03-17T10:21:48;3.53;;;1.08;;
47129;SDS011;69689;48.122;11.542;2024-03-17T10:24:19;3.53;;;1.20;;
47129;SDS011;69689;48.122;11.542;2024-03-17T10:26:47;3.88;;;0.95;;
47129;SDS011;69689;48.122;11.542;2024-03-17T10:29:19;2.45;;;0.80;;
47129;SDS011;69689;48.122;11.542;2024-03-17T10:31:59;2.63;;;1.10;;
47129;SDS011;69689;48.122;11.542;2024-03-17T10:34:29;1.92;;;0.88;;
47129;SDS011;69689;48.122;11.542;2024-03-17T10:37:16;3.45;;;1.27;;
47129;SDS011;69689;48.122;11.542;2024-03-17T10:39:49;1.02;;;0.73;;
47129;SDS011;69689;48.122;11.542;2024-03-17T10:42:15;1.05;;;0.95;;
47129;SDS011;69689;48.122;11.542;2024-03-17T10:44:49;4.03;;;1.23;;
47129;SDS011;69689;48.122;11.542;2024-03-17T10:47:21;1.30;;;0.80;;
47129;SDS011;69689;48.122;11.542;2024-03-17T10:49:47;4.70;;;0.98;;
47129;SDS011;69689;48.122;11.542;2024-03-17T10:52:15;3.28;;;0.80;;
47129;SDS011;69689;48.122;11.542;2024-03-17T10:54:49;1.40;;;0.68;;
47129;SDS011;69689;48.122;11.542;2024-03-17T11:00:03;2.33;;;1.05;;
47129;SDS011;69689;48.122;11.542;2024-03-17T11:02:30;2.22;;;0.90;;
47129;SDS011;69689;48.122;11.542;2024-03-17T11:07:30;2.40;;;0.60;;
47129;SDS011;69689;48.122;11.542;2024-03-17T11:09:57;2.22;;;1.00;;
47129;SDS011;69689;48.122;11.542;2024-03-17T11:12:42;3.10;;;0.98;;
47129;SDS011;69689;48.122;11.542;2024-03-17T11:17:43;2.17;;;0.85;;
47129;SDS011;69689;48.122;11.542;2024-03-17T11:20:13;2.25;;;0.77;;
47129;SDS011;69689;48.122;11.542;2024-03-17T11:22:45;2.03;;;0.60;;
47129;SDS011;69689;48.122;11.542;2024-03-17T11:27:52;2.97;;;1.38;;
47129;SDS011;69689;48.122;11.542;2024-03-17T11:46:53;1.70;;;0.63;;
47129;SDS011;69689;48.122;11.542;2024-03-17T11:51:50;1.92;;;0.60;;
47129;SDS011;69689;48.122;11.542;2024-03-17T11:54:17;1.85;;;0.70;;
47129;SDS011;69689;48.122;11.542;2024-03-17T11:56:44;1.75;;;0.93;;
47129;SDS011;69689;48.122;11.542;2024-03-17T11:59:10;1.15;;;0.47;;
47129;SDS011;69689;48.122;11.542;2024-03-17T12:01:36;2.13;;;0.63;;
47129;SDS011;69689;48.122;11.542;2024-03-17T12:04:02;1.40;;;0.50;;
47129;SDS011;69689;48.122;11.542;2024-03-17T12:06:31;2.03;;;0.70;;
47129;SDS011;69689;48.122;11.542;2024-03-17T12:09:08;1.95;;;0.90;;
47129;SDS011;69689;48.122;11.542;2024-03-17T12:11:45;2.58;;;0.90;;
47129;SDS011;69689;48.122;11.542;2024-03-17T12:14:17;1.42;;;0.70;;
47129;SDS011;69689;48.122;11.542;2024-03-17T12:16:47;2.42;;;1.33;;
47129;SDS011;69689;48.122;11.542;2024-03-17T12:19:16;2.60;;;0.75;;
47129;SDS011;69689;48.122;11.542;2024-03-17T12:22:01;1.35;;;0.60;;
47129;SDS011;69689;48.122;11.542;2024-03-17T12:24:27;2.00;;;0.40;;
47129;SDS011;69689;48.122;11.542;2024-03-17T12:26:55;3.28;;;0.68;;
47129;SDS011;69689;48.122;11.542;2024-03-17T12:29:37;2.55;;;0.75;;
47129;SDS011;69689;48.122;11.542;2024-03-17T12:34:45;2.67;;;0.70;;
47129;SDS011;69689;48.122;11.542;2024-03-17T12:37:25;1.63;;;0.60;;
47129;SDS011;69689;48.122;11.542;2024-03-17T12:40:00;3.33;;;1.08;;
47129;SDS011;69689;48.122;11.542;2024-03-17T12:42:26;2.45;;;0.70;;
47129;SDS011;69689;48.122;11.542;2024-03-17T12:44:56;3.10;;;1.10;;
47129;SDS011;69689;48.122;11.542;2024-03-17T12:47:22;2.30;;;0.73;;
47129;SDS011;69689;48.122;11.542;2024-03-17T12:49:52;3.40;;;0.90;;
47129;SDS011;69689;48.122;11.542;2024-03-17T12:57:45;1.75;;;0.80;;
47129;SDS011;69689;48.122;11.542;2024-03-17T13:00:30;2.42;;;0.95;;
47129;SDS011;69689;48.122;11.542;2024-03-17T13:05:30;2.25;;;0.90;;
47129;SDS011;69689;48.122;11.542;2024-03-17T13:07:56;1.98;;;0.70;;
47129;SDS011;69689;48.122;11.542;2024-03-17T13:10:22;4.93;;;1.50;;
47129;SDS011;69689;48.122;11.542;2024-03-17T13:12:57;1.27;;;0.70;;
47129;SDS011;69689;48.122;11.542;2024-03-17T13:15:24;3.55;;;0.90;;
47129;SDS011;69689;48.122;11.542;2024-03-17T13:17:49;5.07;;;0.93;;
47129;SDS011;69689;48.122;11.542;2024-03-17T13:20:15;3.03;;;0.88;;
47129;SDS011;69689;48.122;11.542;2024-03-17T13:22:44;1.95;;;0.63;;
47129;SDS011;69689;48.122;11.542;2024-03-17T13:25:20;0.98;;;0.63;;
47129;SDS011;69689;48.122;11.542;2024-03-17T13:27:48;2.63;;;0.77;;
47129;SDS011;69689;48.122;11.542;2024-03-17T13:30:17;3.33;;;0.60;;
47129;SDS011;69689;48.122;11.542;2024-03-17T13:32:44;2.90;;;0.90;;
47129;SDS011;69689;48.122;11.542;2024-03-17T13:35:16;1.52;;;0.70;;
47129;SDS011;69689;48.122;11.542;2024-03-17T13:37:44;0.88;;;0.70;;
47129;SDS011;69689;48.122;11.542;2024-03-17T13:40:10;2.63;;;0.90;;
47129;SDS011;69689;48.122;11.542;2024-03-17T13:42:38;2.90;;;1.08;;
47129;SDS011;69689;48.122;11.542;2024-03-17T13:45:04;0.88;;;0.60;;
47129;SDS011;69689;48.122;11.542;2024-03-17T13:47:31;4.30;;;0.95;;
47129;SDS011;69689;48.122;11.542;2024-03-17T13:49:58;3.88;;;0.70;;
47129;SDS011;69689;48.122;11.542;2024-03-17T13:52:23;3.63;;;0.88;;
47129;SDS011;69689;48.122;11.542;2024-03-17T13:54:48;5.30;;;0.85;;
47129;SDS011;69689;48.122;11.542;2024-03-17T13:57:14;2.17;;;0.63;;
47129;SDS011;69689;48.122;11.542;2024-03-17T13:59:40;1.80;;;1.00;;
47129;SDS011;69689;48.122;11.542;2024-03-17T14:02:06;2.15;;;0.80;;
47129;SDS011;69689;48.122;11.542;2024-03-17T14:04:34;1.27;;;0.65;;
47129;SDS011;69689;48.122;11.542;2024-03-17T14:07:00;2.60;;;1.17;;
47129;SDS011;69689;48.122;11.542;2024-03-17T14:09:29;2.65;;;0.80;;
47129;SDS011;69689;48.122;11.542;2024-03-17T14:11:55;3.95;;;0.90;;
47129;SDS011;69689;48.122;11.542;2024-03-17T14:14:22;2.25;;;1.08;;
47129;SDS011;69689;48.122;11.542;2024-03-17T14:16:48;3.00;;;0.95;;
47129;SDS011;69689;48.122;11.542;2024-03-17T14:19:13;1.30;;;0.60;;
47129;SDS011;69689;48.122;11.542;2024-03-17T14:21:38;2.67;;;0.98;;
47129;SDS011;69689;48.122;11.542;2024-03-17T14:24:03;2.38;;;0.73;;
47129;SDS011;69689;48.122;11.542;2024-03-17T14:26:32;2.75;;;0.98;;
47129;SDS011;69689;48.122;11.542;2024-03-17T14:29:00;1.42;;;0.85;;
47129;SDS011;69689;48.122;11.542;2024-03-17T14:31:29;1.67;;;0.80;;
47129;SDS011;69689;48.122;11.542;2024-03-17T14:33:55;4.60;;;0.95;;
47129;SDS011;69689;48.122;11.542;2024-03-17T14:36:20;2.88;;;0.60;;
47129;SDS011;69689;48.122;11.542;2024-03-17T14:38:51;2.83;;;0.73;;
47129;SDS011;69689;48.122;11.542;2024-03-17T14:41:19;4.88;;;1.60;;
47129;SDS011;69689;48.122;11.542;2024-03-17T14:43:44;4.40;;;1.00;;
47129;SDS011;69689;48.122;11.542;2024-03-17T14:46:11;1.88;;;0.80;;
47129;SDS011;69689;48.122;11.542;2024-03-17T14:48:38;3.28;;;0.82;;
47129;SDS011;69689;48.122;11.542;2024-03-17T14:51:04;2.78;;;0.95;;
47129;SDS011;69689;48.122;11.542;2024-03-17T14:53:29;2.00;;;0.93;;
47129;SDS011;69689;48.122;11.542;2024-03-17T14:55:55;3.03;;;0.80;;
47129;SDS011;69689;48.122;11.542;2024-03-17T14:58:20;3.45;;;1.25;;
47129;SDS011;69689;48.122;11.542;2024-03-17T15:00:46;6.10;;;1.00;;
47129;SDS011;69689;48.122;11.542;2024-03-17T15:03:12;1.75;;;0.93;;
47129;SDS011;69689;48.122;11.542;2024-03-17T15:05:39;3.72;;;1.00;;
47129;SDS011;69689;48.122;11.542;2024-03-17T15:08:05;1.45;;;0.90;;
47129;SDS011;69689;48.122;11.542;2024-03-17T15:10:31;2.33;;;1.08;;
47129;SDS011;69689;48.122;11.542;2024-03-17T15:12:56;1.83;;;0.95;;
47129;SDS011;69689;48.122;11.542;2024-03-17T15:15:21;3.40;;;0.93;;
47129;SDS011;69689;48.122;11.542;2024-03-17T15:17:47;3.00;;;1.00;;
47129;SDS011;69689;48.122;11.542;2024-03-17T15:20:15;2.38;;;0.77;;
47129;SDS011;69689;48.122;11.542;2024-03-17T15:22:46;4.13;;;0.98;;
47129;SDS011;69689;48.122;11.542;2024-03-17T15:25:14;2.45;;;1.10;;
47129;SDS011;69689;48.122;11.542;2024-03-17T15:27:42;1.27;;;0.90;;
47129;SDS011;69689;48.122;11.542;2024-03-17T15:30:16;4.57;;;1.20;;
47129;SDS011;69689;48.122;11.542;2024-03-17T15:32:46;1.60;;;0.93;;
47129;SDS011;69689;48.122;11.542;2024-03-17T15:35:11;2.95;;;0.98;;
47129;SDS011;69689;48.122;11.542;2024-03-17T15:37:43;4.40;;;1.20;;
47129;SDS011;69689;48.122;11.542;2024-03-17T15:40:09;2.05;;;1.58;;
47129;SDS011;69689;48.122;11.542;2024-03-17T15:42:44;4.63;;;1.45;;
47129;SDS011;69689;48.122;11.542;2024-03-17T15:45:10;2.85;;;0.98;;
47129;SDS011;69689;48.122;11.542;2024-03-17T15:47:36;3.30;;;1.08;;
47129;SDS011;69689;48.122;11.542;2024-03-17T15:50:02;3.28;;;1.05;;
47129;SDS011;69689;48.122;11.542;2024-03-17T15:52:27;6.00;;;1.00;;
47129;SDS011;69689;48.122;11.542;2024-03-17T15:54:54;4.97;;;0.90;;
47129;SDS011;69689;48.122;11.542;2024-03-17T15:57:23;2.80;;;1.10;;
47129;SDS011;69689;48.122;11.542;2024-03-17T15:59:50;3.63;;;1.10;;
47129;SDS011;69689;48.122;11.542;2024-03-17T16:02:17;4.85;;;1.50;;
47129;SDS011;69689;48.122;11.542;2024-03-17T16:04:42;5.78;;;0.95;;
47129;SDS011;69689;48.122;11.542;2024-03-17T16:07:08;2.38;;;1.25;;
47129;SDS011;69689;48.122;11.542;2024-03-17T16:09:34;2.90;;;1.02;;
47129;SDS011;69689;48.122;11.542;2024-03-17T16:11:59;2.53;;;0.90;;
47129;SDS011;69689;48.122;11.542;2024-03-17T16:14:25;1.65;;;1.05;;
47129;SDS011;69689;48.122;11.542;2024-03-17T16:16:50;2.53;;;1.10;;
47129;SDS011;69689;48.122;11.542;2024-03-17T16:19:16;6.72;;;1.23;;
47129;SDS011;69689;48.122;11.542;2024-03-17T16:21:41;5.18;;;1.27;;
47129;SDS011;69689;48.122;11.542;2024-03-17T16:24:10;4.25;;;1.50;;
47129;SDS011;69689;48.122;11.542;2024-03-17T16:26:36;2.03;;;1.23;;
47129;SDS011;69689;48.122;11.542;2024-03-17T16:29:03;2.08;;;1.08;;
47129;SDS011;69689;48.122;11.542;2024-03-17T16:31:30;4.03;;;1.10;;
47129;SDS011;69689;48.122;11.542;2024-03-17T16:33:56;4.60;;;1.00;;
47129;SDS011;69689;48.122;11.542;2024-03-17T16:36:24;1.90;;;1.08;;
47129;SDS011;69689;48.122;11.542;2024-03-17T16:38:50;4.63;;;1.63;;
47129;SDS011;69689;48.122;11.542;2024-03-17T16:41:17;2.67;;;1.20;;
47129;SDS011;69689;48.122;11.542;2024-03-17T16:49:18;3.83;;;1.23;;
47129;SDS011;69689;48.122;11.542;2024-03-17T16:51:44;3.03;;;1.30;;
47129;SDS011;69689;48.122;11.542;2024-03-17T16:54:10;2.97;;;0.95;;
47129;SDS011;69689;48.122;11.542;2024-03-17T16:56:36;3.80;;;1.15;;
47129;SDS011;69689;48.122;11.542;2024-03-17T16:59:02;4.88;;;1.50;;
47129;SDS011;69689;48.122;11.542;2024-03-17T17:01:28;5.30;;;1.67;;
47129;SDS011;69689;48.122;11.542;2024-03-17T17:03:53;5.25;;;1.40;;
47129;SDS011;69689;48.122;11.542;2024-03-17T17:06:21;4.82;;;1.35;;
47129;SDS011;69689;48.122;11.542;2024-03-17T17:08:46;4.50;;;1.55;;
47129;SDS011;69689;48.122;11.542;2024-03-17T17:11:14;1.58;;;1.13;;
47129;SDS011;69689;48.122;11.542;2024-03-17T17:13:40;4.63;;;1.23;;
47129;SDS011;69689;48.122;11.542;2024-03-17T17:16:05;5.55;;;1.27;;
47129;SDS011;69689;48.122;11.542;2024-03-17T17:18:51;3.75;;;1.20;;
47129;SDS011;69689;48.122;11.542;2024-03-17T17:21:19;2.50;;;1.13;;
47129;SDS011;69689;48.122;11.542;2024-03-17T17:23:45;9.13;;;1.08;;
47129;SDS011;69689;48.122;11.542;2024-03-17T17:26:17;6.28;;;1.52;;
47129;SDS011;69689;48.122;11.542;2024-03-17T17:28:47;7.93;;;1.63;;
47129;SDS011;69689;48.122;11.542;2024-03-17T17:31:13;6.07;;;2.08;;
47129;SDS011;69689;48.122;11.542;2024-03-17T17:33:39;3.75;;;1.67;;
47129;SDS011;69689;48.122;11.542;2024-03-17T17:36:08;3.33;;;1.98;;
47129;SDS011;69689;48.122;11.542;2024-03-17T17:38:34;3.60;;;1.75;;
47129;SDS011;69689;48.122;11.542;2024-03-17T17:41:03;5.50;;;2.15;;
47129;SDS011;69689;48.122;11.542;2024-03-17T17:43:34;4.00;;;1.63;;
47129;SDS011;69689;48.122;11.542;2024-03-17T17:46:12;5.45;;;1.65;;
47129;SDS011;69689;48.122;11.542;2024-03-17T17:48:39;5.07;;;2.03;;
47129;SDS011;69689;48.122;11.542;2024-03-17T17:51:06;3.92;;;1.42;;
47129;SDS011;69689;48.122;11.542;2024-03-17T17:53:33;3.00;;;1.52;;
47129;SDS011;69689;48.122;11.542;2024-03-17T17:55:59;4.53;;;1.92;;
47129;SDS011;69689;48.122;11.542;2024-03-17T17:58:31;7.15;;;3.13;;
47129;SDS011;69689;48.122;11.542;2024-03-17T18:00:57;3.63;;;1.70;;
47129;SDS011;69689;48.122;11.542;2024-03-17T18:03:26;7.00;;;2.60;;
47129;SDS011;69689;48.122;11.542;2024-03-17T18:05:55;3.40;;;1.58;;
47129;SDS011;69689;48.122;11.542;2024-03-17T18:08:21;3.78;;;1.65;;
47129;SDS011;69689;48.122;11.542;2024-03-17T18:10:49;5.40;;;1.92;;
47129;SDS011;69689;48.122;11.542;2024-03-17T18:13:15;2.00;;;1.50;;
47129;SDS011;69689;48.122;11.542;2024-03-17T18:15:41;5.43;;;1.80;;
47129;SDS011;69689;48.122;11.542;2024-03-17T18:18:07;5.72;;;1.85;;
47129;SDS011;69689;48.122;11.542;2024-03-17T18:20:33;4.63;;;2.30;;
47129;SDS011;69689;48.122;11.542;2024-03-17T18:22:58;3.78;;;1.90;;
47129;SDS011;69689;48.122;11.542;2024-03-17T18:25:28;3.00;;;1.40;;
47129;SDS011;69689;48.122;11.542;2024-03-17T18:30:22;5.63;;;1.98;;
47129;SDS011;69689;48.122;11.542;2024-03-17T18:32:47;4.82;;;1.88;;
47129;SDS011;69689;48.122;11.542;2024-03-17T18:35:13;11.27;;;2.65;;
47129;SDS011;69689;48.122;11.542;2024-03-17T18:37:38;2.95;;;1.77;;
47129;SDS011;69689;48.122;11.542;2024-03-17T18:40:04;6.50;;;2.67;;
47129;SDS011;69689;48.122;11.542;2024-03-17T18:42:32;3.60;;;1.95;;
47129;SDS011;69689;48.122;11.542;2024-03-17T18:44:57;5.68;;;2.20;;
47129;SDS011;69689;48.122;11.542;2024-03-17T18:47:23;8.13;;;2.67;;
47129;SDS011;69689;48.122;11.542;2024-03-17T18:49:50;5.40;;;2.28;;
47129;SDS011;69689;48.122;11.542;2024-03-17T18:52:15;3.88;;;2.35;;
47129;SDS011;69689;48.122;11.542;2024-03-17T18:54:41;4.82;;;2.30;;
47129;SDS011;69689;48.122;11.542;2024-03-17T18:57:06;6.60;;;2.63;;
47129;SDS011;69689;48.122;11.542;2024-03-17T18:59:32;5.15;;;2.60;;
47129;SDS011;69689;48.122;11.542;2024-03-17T19:01:57;7.13;;;2.35;;
47129;SDS011;69689;48.122;11.542;2024-03-17T19:04:24;5.25;;;2.50;;
47129;SDS011;69689;48.122;11.542;2024-03-17T19:06:50;6.00;;;2.97;;
47129;SDS011;69689;48.122;11.542;2024-03-17T19:09:15;8.05;;;3.00;;
47129;SDS011;69689;48.122;11.542;2024-03-17T19:11:40;6.07;;;2.88;;
47129;SDS011;69689;48.122;11.542;2024-03-17T19:14:06;5.97;;;2.85;;
47129;SDS011;69689;48.122;11.542;2024-03-17T19:16:34;6.15;;;3.35;;
47129;SDS011;69689;48.122;11.542;2024-03-17T19:19:00;6.60;;;3.42;;
47129;SDS011;69689;48.122;11.542;2024-03-17T19:21:25;4.90;;;2.67;;
47129;SDS011;69689;48.122;11.542;2024-03-17T19:23:50;6.05;;;3.25;;
47129;SDS011;69689;48.122;11.542;2024-03-17T19:26:16;4.70;;;2.92;;
47129;SDS011;69689;48.122;11.542;2024-03-17T19:28:45;10.25;;;3.55;;
47129;SDS011;69689;48.122;11.542;2024-03-17T19:31:10;5.05;;;2.85;;
47129;SDS011;69689;48.122;11.542;2024-03-17T19:33:36;5.25;;;2.80;;
47129;SDS011;69689;48.122;11.542;2024-03-17T19:36:03;5.75;;;3.15;;
47129;SDS011;69689;48.122;11.542;2024-03-17T19:38:34;8.95;;;3.78;;
47129;SDS011;69689;48.122;11.542;2024-03-17T19:41:00;5.63;;;3.58;;
47129;SDS011;69689;48.122;11.542;2024-03-17T19:43:27;5.63;;;3.40;;
47129;SDS011;69689;48.122;11.542;2024-03-17T19:45:57;5.65;;;3.25;;
47129;SDS011;69689;48.122;11.542;2024-03-17T19:48:24;6.82;;;3.55;;
47129;SDS011;69689;48.122;11.542;2024-03-17T19:50:49;6.00;;;3.78;;
47129;SDS011;69689;48.122;11.542;2024-03-17T19:53:15;7.55;;;4.57;;
47129;SDS011;69689;48.122;11.542;2024-03-17T19:55:40;8.18;;;3.92;;
47129;SDS011;69689;48.122;11.542;2024-03-17T19:58:05;5.97;;;2.97;;
47129;SDS011;69689;48.122;11.542;2024-03-17T20:00:31;5.90;;;3.53;;
